Time;durP1;ratioP1;P1;durP2;ratioP2;P2;SDS_P1;SDS_P2;PMS_P1;PMS_P2;Temp;Humidity;BMP_temperature;BMP_pressure;BME280_temperature;BME280_humidity;BME280_pressure;Samples;Min_cycle;Max_cycle;Signal;HPM_P1;HPM_P2
2023/10/14 00:01:28;;;;;;;4.10;1.60;;;;;;;;;;5059835;27;89126;-59
2023/10/14 00:03:57;;;;;;;2.23;1.67;;;;;;;;;;5058704;27;88777;-59
2023/10/14 00:06:27;;;;;;;2.67;1.83;;;;;;;;;;5060391;27;87618;-59
2023/10/14 00:08:57;;;;;;;2.17;1.40;;;;;;;;;;5061241;27;89351;-59
2023/10/14 00:11:32;;;;;;;2.47;1.60;;;;;;;;;;5059703;27;88600;-59
2023/10/14 00:14:03;;;;;;;2.50;1.60;;;;;;;;;;5058721;27;87585;-59
2023/10/14 00:16:36;;;;;;;4.80;2.03;;;;;;;;;;5060264;27;87584;-59
2023/10/14 00:19:05;;;;;;;2.37;1.80;;;;;;;;;;5061020;27;87463;-59
2023/10/14 00:21:34;;;;;;;2.10;1.50;;;;;;;;;;5058457;27;88553;-59
2023/10/14 00:24:04;;;;;;;3.50;1.80;;;;;;;;;;5061247;27;89888;-59
2023/10/14 00:26:32;;;;;;;3.03;1.67;;;;;;;;;;5057927;27;89065;-59
2023/10/14 00:29:16;;;;;;;2.87;1.70;;;;;;;;;;5058607;27;89592;-59
2023/10/14 00:31:46;;;;;;;2.13;1.67;;;;;;;;;;5059088;27;89318;-59
2023/10/14 00:34:15;;;;;;;3.87;2.10;;;;;;;;;;5059610;27;87723;-59
2023/10/14 00:36:44;;;;;;;2.23;2.00;;;;;;;;;;5061091;27;87934;-59
2023/10/14 00:39:16;;;;;;;2.47;1.53;;;;;;;;;;5059282;27;89639;-59
2023/10/14 00:41:47;;;;;;;3.27;2.33;;;;;;;;;;5060992;27;89167;-59
2023/10/14 00:44:15;;;;;;;2.23;2.03;;;;;;;;;;5060859;27;88914;-59
2023/10/14 00:46:48;;;;;;;7.43;1.77;;;;;;;;;;5059522;27;89707;-58
2023/10/14 00:49:18;;;;;;;3.83;2.23;;;;;;;;;;5057937;27;88392;-59
2023/10/14 00:51:49;;;;;;;5.50;2.10;;;;;;;;;;5060746;27;89244;-59
2023/10/14 00:54:27;;;;;;;1.93;1.83;;;;;;;;;;5058345;27;88785;-59
2023/10/14 00:57:09;;;;;;;4.17;1.90;;;;;;;;;;5061032;27;87580;-59
2023/10/14 00:59:37;;;;;;;5.53;2.30;;;;;;;;;;5060795;27;89647;-59
2023/10/14 01:02:09;;;;;;;3.07;2.20;;;;;;;;;;5060689;27;89236;-59
2023/10/14 01:04:40;;;;;;;4.23;2.50;;;;;;;;;;5058736;27;88753;-59
2023/10/14 01:07:13;;;;;;;3.80;2.10;;;;;;;;;;5060931;27;88416;-63
2023/10/14 01:09:51;;;;;;;2.97;2.03;;;;;;;;;;5058852;27;89349;-59
2023/10/14 01:12:23;;;;;;;3.00;2.10;;;;;;;;;;5057706;27;89027;-59
2023/10/14 01:14:52;;;;;;;4.97;2.27;;;;;;;;;;5060285;27;90003;-59
2023/10/14 01:17:28;;;;;;;4.70;2.73;;;;;;;;;;5058773;27;87340;-59
2023/10/14 01:20:01;;;;;;;2.57;2.00;;;;;;;;;;5057377;27;89476;-59
2023/10/14 01:22:30;;;;;;;3.70;2.33;;;;;;;;;;5060429;27;88983;-59
2023/10/14 01:25:01;;;;;;;4.70;3.03;;;;;;;;;;5055840;27;88788;-60
2023/10/14 01:27:34;;;;;;;4.07;2.80;;;;;;;;;;5058483;27;88362;-59
2023/10/14 01:30:08;;;;;;;4.63;3.07;;;;;;;;;;5058686;27;89709;-59
2023/10/14 01:32:48;;;;;;;3.50;2.67;;;;;;;;;;5060431;27;88055;-59
2023/10/14 01:35:26;;;;;;;5.07;3.60;;;;;;;;;;5057794;27;87582;-59
2023/10/14 01:37:56;;;;;;;3.47;2.80;;;;;;;;;;5059980;27;87767;-59
2023/10/14 01:40:35;;;;;;;4.77;3.13;;;;;;;;;;5059150;27;89597;-59
2023/10/14 01:43:06;;;;;;;7.13;4.03;;;;;;;;;;5058535;27;89335;-59
2023/10/14 01:45:40;;;;;;;4.00;2.90;;;;;;;;;;5058672;27;88876;-59
2023/10/14 01:48:19;;;;;;;8.97;4.23;;;;;;;;;;5060226;27;87520;-59
2023/10/14 01:50:50;;;;;;;7.33;3.60;;;;;;;;;;5058898;27;88726;-59
2023/10/14 01:53:23;;;;;;;6.00;3.80;;;;;;;;;;5057767;27;89124;-59
2023/10/14 01:55:53;;;;;;;5.43;3.40;;;;;;;;;;5060482;27;88885;-59
2023/10/14 01:58:29;;;;;;;6.27;3.93;;;;;;;;;;5057805;27;87661;-59
2023/10/14 02:01:04;;;;;;;6.83;3.80;;;;;;;;;;5059127;27;89785;-59
2023/10/14 02:03:41;;;;;;;5.73;3.80;;;;;;;;;;5059223;27;90206;-59
2023/10/14 02:06:17;;;;;;;6.83;4.20;;;;;;;;;;5059533;27;90137;-59
2023/10/14 02:08:47;;;;;;;9.97;4.63;;;;;;;;;;5058722;27;87592;-59
2023/10/14 02:11:20;;;;;;;7.90;4.43;;;;;;;;;;5058398;27;88598;-59
2023/10/14 02:13:50;;;;;;;6.27;3.83;;;;;;;;;;5057467;27;89155;-59
2023/10/14 02:16:24;;;;;;;6.03;4.70;;;;;;;;;;5056760;27;87743;-60
2023/10/14 02:19:00;;;;;;;6.00;4.13;;;;;;;;;;5060038;27;87452;-59
2023/10/14 02:21:34;;;;;;;6.43;4.07;;;;;;;;;;5059037;27;88568;-59
2023/10/14 02:24:09;;;;;;;5.03;3.90;;;;;;;;;;5060130;27;89131;-59
2023/10/14 02:26:38;;;;;;;5.03;4.30;;;;;;;;;;5059344;27;88997;-59
2023/10/14 02:29:09;;;;;;;7.37;4.10;;;;;;;;;;5060035;27;87837;-59
2023/10/14 02:31:37;;;;;;;8.07;4.13;;;;;;;;;;5058810;27;88522;-59
2023/10/14 02:34:06;;;;;;;6.73;4.97;;;;;;;;;;5059708;27;87913;-59
2023/10/14 02:36:36;;;;;;;7.13;4.13;;;;;;;;;;5059452;27;88781;-59
2023/10/14 02:39:14;;;;;;;9.43;4.47;;;;;;;;;;5059745;27;87684;-59
2023/10/14 02:41:44;;;;;;;6.90;5.13;;;;;;;;;;5056920;27;88547;-59
2023/10/14 02:44:27;;;;;;;10.00;5.40;;;;;;;;;;5059342;27;89195;-59
2023/10/14 02:47:01;;;;;;;9.40;5.30;;;;;;;;;;5059042;27;87969;-59
2023/10/14 02:49:35;;;;;;;8.20;5.40;;;;;;;;;;5059973;27;88008;-59
2023/10/14 02:52:08;;;;;;;10.57;5.90;;;;;;;;;;5056670;27;89765;-59
2023/10/14 02:54:40;;;;;;;9.20;7.47;;;;;;;;;;5058681;27;89953;-59
2023/10/14 02:59:50;;;;;;;11.07;5.90;;;;;;;;;;5062138;27;87846;-59
2023/10/14 03:02:25;;;;;;;11.20;5.97;;;;;;;;;;5062670;27;88523;-59
2023/10/14 03:05:09;;;;;;;8.67;6.43;;;;;;;;;;5062840;27;88043;-59
2023/10/14 03:07:47;;;;;;;11.67;6.60;;;;;;;;;;5061736;27;89431;-59
2023/10/14 03:10:28;;;;;;;11.70;7.27;;;;;;;;;;5062872;27;87638;-59
2023/10/14 03:12:57;;;;;;;14.93;7.40;;;;;;;;;;5062453;27;89787;-59
2023/10/14 03:15:30;;;;;;;14.57;7.23;;;;;;;;;;5062520;27;88103;-59
2023/10/14 03:18:00;;;;;;;14.30;8.77;;;;;;;;;;5062464;27;87774;-59
2023/10/14 03:20:36;;;;;;;12.57;8.00;;;;;;;;;;5062399;27;87834;-59
2023/10/14 03:23:10;;;;;;;13.27;7.20;;;;;;;;;;5061671;27;89808;-59
2023/10/14 03:25:41;;;;;;;14.30;8.07;;;;;;;;;;5062042;27;87672;-59
2023/10/14 03:28:14;;;;;;;14.37;8.80;;;;;;;;;;5062198;27;88720;-59
2023/10/14 03:30:45;;;;;;;11.00;7.83;;;;;;;;;;5062128;27;87931;-59
2023/10/14 03:33:14;;;;;;;14.37;8.97;;;;;;;;;;5062076;27;89678;-59
2023/10/14 03:35:43;;;;;;;14.70;8.50;;;;;;;;;;5059191;27;89033;-59
2023/10/14 03:38:25;;;;;;;13.37;8.23;;;;;;;;;;5062238;27;89001;-59
2023/10/14 03:41:04;;;;;;;12.90;9.30;;;;;;;;;;5061399;27;87556;-59
2023/10/14 03:43:43;;;;;;;12.50;8.13;;;;;;;;;;5060521;27;88489;-59
2023/10/14 03:46:12;;;;;;;15.63;10.10;;;;;;;;;;5060510;27;88969;-59
2023/10/14 03:48:47;;;;;;;13.37;9.53;;;;;;;;;;5060976;27;89821;-59
2023/10/14 03:51:24;;;;;;;15.17;10.13;;;;;;;;;;5061988;27;87539;-59
2023/10/14 03:53:53;;;;;;;15.30;9.57;;;;;;;;;;5060813;27;88741;-59
2023/10/14 03:56:25;;;;;;;13.47;8.13;;;;;;;;;;5062120;27;87771;-59
2023/10/14 03:58:57;;;;;;;14.57;9.40;;;;;;;;;;5061603;27;87942;-59
2023/10/14 04:01:30;;;;;;;17.60;10.83;;;;;;;;;;5059979;27;87575;-59
2023/10/14 04:04:01;;;;;;;14.53;9.83;;;;;;;;;;5061519;27;88497;-59
2023/10/14 04:06:35;;;;;;;17.87;10.70;;;;;;;;;;5061398;27;89110;-59
2023/10/14 04:09:10;;;;;;;17.80;11.37;;;;;;;;;;5059884;27;88884;-59
2023/10/14 04:11:40;;;;;;;21.13;10.93;;;;;;;;;;5060692;27;88107;-59
2023/10/14 04:14:13;;;;;;;21.60;11.00;;;;;;;;;;5060596;27;89625;-59
2023/10/14 04:16:57;;;;;;;12.63;9.00;;;;;;;;;;5061172;27;87753;-59
2023/10/14 04:19:44;;;;;;;17.57;11.03;;;;;;;;;;5059107;27;88752;-59
2023/10/14 04:22:27;;;;;;;16.93;10.67;;;;;;;;;;5058949;27;87347;-59
2023/10/14 04:25:07;;;;;;;16.80;10.87;;;;;;;;;;5061494;27;88634;-59
2023/10/14 04:27:45;;;;;;;19.47;10.37;;;;;;;;;;5061629;27;88174;-59
2023/10/14 04:30:19;;;;;;;16.90;11.23;;;;;;;;;;5060234;27;88947;-59
2023/10/14 04:32:57;;;;;;;17.80;11.17;;;;;;;;;;5061709;27;87490;-59
2023/10/14 04:35:25;;;;;;;21.70;10.13;;;;;;;;;;5060871;27;89619;-59
2023/10/14 04:37:53;;;;;;;16.23;10.63;;;;;;;;;;5056838;27;90045;-59
2023/10/14 04:40:36;;;;;;;17.90;10.50;;;;;;;;;;5058234;27;89836;-59
2023/10/14 04:43:11;;;;;;;19.13;11.20;;;;;;;;;;5058451;27;87599;-59
2023/10/14 04:45:45;;;;;;;19.20;11.30;;;;;;;;;;5057791;27;89708;-59
2023/10/14 04:48:15;;;;;;;16.57;10.47;;;;;;;;;;5058115;27;89178;-59
2023/10/14 04:50:44;;;;;;;16.23;10.53;;;;;;;;;;5057917;27;89056;-59
2023/10/14 04:53:13;;;;;;;16.90;9.47;;;;;;;;;;5057257;27;87646;-59
2023/10/14 04:55:44;;;;;;;17.97;10.93;;;;;;;;;;5059039;27;89531;-59
2023/10/14 04:58:21;;;;;;;15.03;8.47;;;;;;;;;;5058110;27;89329;-59
2023/10/14 05:00:52;;;;;;;17.27;10.40;;;;;;;;;;5058576;27;89107;-59
2023/10/14 05:03:22;;;;;;;18.80;10.87;;;;;;;;;;5057655;27;87889;-59
2023/10/14 05:05:52;;;;;;;14.30;8.97;;;;;;;;;;5057284;27;88487;-59
2023/10/14 05:08:23;;;;;;;15.10;10.30;;;;;;;;;;5058112;27;89839;-59
2023/10/14 05:10:52;;;;;;;15.47;9.40;;;;;;;;;;5057982;27;89039;-59
2023/10/14 05:13:31;;;;;;;14.10;9.60;;;;;;;;;;5057663;27;88078;-59
2023/10/14 05:16:15;;;;;;;19.53;9.60;;;;;;;;;;5058448;27;89540;-59
2023/10/14 05:18:58;;;;;;;12.50;9.23;;;;;;;;;;5058442;27;89180;-59
2023/10/14 05:21:36;;;;;;;16.07;9.77;;;;;;;;;;5058007;27;88802;-59
2023/10/14 05:24:05;;;;;;;15.33;9.67;;;;;;;;;;5058555;27;87573;-59
2023/10/14 05:26:43;;;;;;;13.33;8.43;;;;;;;;;;5058246;27;90064;-59
2023/10/14 05:29:17;;;;;;;13.57;8.70;;;;;;;;;;5057757;27;90071;-59
2023/10/14 05:31:46;;;;;;;13.87;8.77;;;;;;;;;;5058119;27;88731;-59
2023/10/14 05:34:17;;;;;;;13.07;8.87;;;;;;;;;;5058392;27;87406;-59
2023/10/14 05:36:48;;;;;;;14.83;8.83;;;;;;;;;;5057778;27;89616;-59
2023/10/14 05:39:17;;;;;;;12.37;7.93;;;;;;;;;;5057969;27;88068;-59
2023/10/14 05:41:48;;;;;;;19.40;9.63;;;;;;;;;;5058048;27;88863;-60
2023/10/14 05:44:18;;;;;;;16.03;7.40;;;;;;;;;;5058292;27;87623;-59
2023/10/14 05:46:46;;;;;;;14.03;7.63;;;;;;;;;;5057801;27;89738;-60
2023/10/14 05:49:16;;;;;;;10.87;7.37;;;;;;;;;;5057423;27;89225;-59
2023/10/14 05:51:44;;;;;;;12.57;7.50;;;;;;;;;;5057574;27;87756;-59
2023/10/14 05:54:13;;;;;;;14.60;7.33;;;;;;;;;;5057691;27;88443;-59
2023/10/14 05:56:43;;;;;;;13.60;6.77;;;;;;;;;;5057837;27;89549;-59
2023/10/14 05:59:11;;;;;;;10.93;5.97;;;;;;;;;;5057746;27;89379;-59
2023/10/14 06:01:45;;;;;;;9.90;7.63;;;;;;;;;;5057668;27;88033;-59
2023/10/14 06:04:14;;;;;;;12.40;7.83;;;;;;;;;;5055581;27;87938;-59
2023/10/14 06:06:43;;;;;;;11.87;6.53;;;;;;;;;;5055750;27;89688;-59
2023/10/14 06:09:12;;;;;;;10.07;6.50;;;;;;;;;;5060855;27;88668;-59
2023/10/14 06:11:40;;;;;;;7.67;5.67;;;;;;;;;;5060903;27;87738;-59
2023/10/14 06:14:10;;;;;;;13.47;6.07;;;;;;;;;;5060283;27;87773;-59
2023/10/14 06:16:38;;;;;;;10.43;6.10;;;;;;;;;;5060719;27;89466;-59
2023/10/14 06:19:12;;;;;;;11.13;6.10;;;;;;;;;;5059952;27;90084;-59
2023/10/14 06:21:41;;;;;;;10.30;6.20;;;;;;;;;;5060814;27;89940;-59
2023/10/14 06:24:10;;;;;;;9.50;5.70;;;;;;;;;;5060779;27;87643;-59
2023/10/14 06:26:39;;;;;;;11.17;5.63;;;;;;;;;;5060537;27;88607;-59
2023/10/14 06:29:09;;;;;;;9.97;5.67;;;;;;;;;;5060452;27;89297;-59
2023/10/14 06:31:38;;;;;;;10.07;7.07;;;;;;;;;;5061207;27;87653;-59
2023/10/14 06:34:09;;;;;;;9.60;5.03;;;;;;;;;;5063857;27;87882;-59
2023/10/14 06:36:38;;;;;;;7.93;4.83;;;;;;;;;;5064153;27;89754;-59
2023/10/14 06:39:14;;;;;;;8.67;5.37;;;;;;;;;;5064073;27;89042;-59
2023/10/14 06:41:44;;;;;;;6.37;4.27;;;;;;;;;;5063829;27;88737;-59
2023/10/14 06:44:15;;;;;;;9.60;5.63;;;;;;;;;;5063913;27;87776;-59
2023/10/14 06:46:44;;;;;;;8.20;5.73;;;;;;;;;;5063962;27;89689;-60
2023/10/14 06:49:16;;;;;;;7.13;4.57;;;;;;;;;;5063757;27;89220;-61
2023/10/14 06:51:45;;;;;;;8.30;3.67;;;;;;;;;;5064026;27;88723;-60
2023/10/14 06:54:14;;;;;;;6.30;4.20;;;;;;;;;;5064070;27;87515;-59
2023/10/14 06:56:44;;;;;;;6.60;4.43;;;;;;;;;;5063563;27;89673;-58
2023/10/14 06:59:13;;;;;;;10.07;3.80;;;;;;;;;;5056165;27;89170;-61
2023/10/14 07:01:43;;;;;;;6.77;3.63;;;;;;;;;;5049073;27;89080;-59
2023/10/14 07:04:12;;;;;;;8.97;2.97;;;;;;;;;;5060837;27;87681;-60
2023/10/14 07:06:47;;;;;;;7.90;3.33;;;;;;;;;;5060587;27;88548;-60
2023/10/14 07:09:18;;;;;;;9.33;2.97;;;;;;;;;;5042583;27;89763;-61
2023/10/14 07:11:46;;;;;;;5.30;2.83;;;;;;;;;;5043068;28;88713;-59
2023/10/14 07:14:15;;;;;;;5.23;3.10;;;;;;;;;;5059932;27;87805;-59
2023/10/14 07:16:43;;;;;;;9.53;3.37;;;;;;;;;;5060385;27;91688;-60
2023/10/14 07:19:12;;;;;;;4.23;2.40;;;;;;;;;;5061814;27;89125;-59
2023/10/14 07:21:40;;;;;;;4.23;2.83;;;;;;;;;;5063692;27;88781;-60
2023/10/14 07:24:14;;;;;;;4.77;3.30;;;;;;;;;;5063540;27;87641;-60
2023/10/14 07:26:43;;;;;;;3.00;2.53;;;;;;;;;;5063683;27;89758;-60
2023/10/14 07:29:11;;;;;;;4.63;2.63;;;;;;;;;;5063252;27;89129;-60
2023/10/14 07:31:41;;;;;;;5.00;2.90;;;;;;;;;;5062706;27;87991;-60
2023/10/14 07:34:10;;;;;;;2.60;2.27;;;;;;;;;;5062928;27;87824;-60
2023/10/14 07:36:38;;;;;;;8.70;3.20;;;;;;;;;;5063146;27;89792;-60
2023/10/14 07:39:27;;;;;;;9.37;2.63;;;;;;;;;;5063325;27;89258;-63
2023/10/14 07:41:57;;;;;;;4.60;2.73;;;;;;;;;;5062786;27;87359;-61
2023/10/14 07:44:25;;;;;;;5.10;2.73;;;;;;;;;;5063200;27;87734;-60
2023/10/14 07:46:55;;;;;;;5.47;2.50;;;;;;;;;;5062659;27;89701;-60
2023/10/14 07:49:24;;;;;;;4.27;2.27;;;;;;;;;;5062911;27;88097;-61
2023/10/14 07:51:56;;;;;;;5.67;2.10;;;;;;;;;;5063260;27;87921;-60
2023/10/14 07:54:26;;;;;;;3.83;3.03;;;;;;;;;;5063141;27;87482;-60
2023/10/14 07:56:55;;;;;;;5.07;2.27;;;;;;;;;;5063131;27;89703;-60
2023/10/14 07:59:25;;;;;;;6.00;2.43;;;;;;;;;;5062380;27;90171;-61
2023/10/14 08:01:54;;;;;;;5.20;2.50;;;;;;;;;;5062537;27;88680;-60
2023/10/14 08:04:24;;;;;;;3.23;2.30;;;;;;;;;;5062953;27;87638;-60
2023/10/14 08:06:53;;;;;;;7.13;2.07;;;;;;;;;;5062650;27;89820;-60
2023/10/14 08:09:25;;;;;;;4.20;2.80;;;;;;;;;;5062672;27;89360;-64
2023/10/14 08:11:53;;;;;;;3.97;2.90;;;;;;;;;;5062712;27;88991;-59
2023/10/14 08:14:22;;;;;;;3.30;2.20;;;;;;;;;;5062448;27;87686;-60
2023/10/14 08:16:51;;;;;;;4.97;2.40;;;;;;;;;;5062791;27;88633;-58
2023/10/14 08:19:21;;;;;;;3.60;2.00;;;;;;;;;;5062850;27;87983;-58
2023/10/14 08:21:51;;;;;;;2.33;1.43;;;;;;;;;;5062613;27;88727;-58
2023/10/14 08:24:20;;;;;;;4.17;1.60;;;;;;;;;;5062287;27;88120;-58
2023/10/14 08:26:49;;;;;;;2.30;1.53;;;;;;;;;;5058200;27;89616;-57
2023/10/14 08:29:20;;;;;;;4.73;1.40;;;;;;;;;;5059274;27;88015;-58
2023/10/14 08:31:51;;;;;;;2.97;1.87;;;;;;;;;;5058696;27;87966;-58
2023/10/14 08:34:23;;;;;;;5.30;1.80;;;;;;;;;;5059066;27;87861;-58
2023/10/14 08:36:52;;;;;;;4.33;2.43;;;;;;;;;;5058733;27;87528;-58
2023/10/14 08:39:23;;;;;;;3.73;1.40;;;;;;;;;;5058815;27;88157;-58
2023/10/14 08:41:54;;;;;;;2.47;1.33;;;;;;;;;;5059142;27;87763;-58
2023/10/14 08:44:23;;;;;;;3.47;1.27;;;;;;;;;;5057337;27;87637;-58
2023/10/14 08:46:51;;;;;;;1.23;1.13;;;;;;;;;;5062060;27;88598;-58
2023/10/14 08:49:25;;;;;;;1.93;1.30;;;;;;;;;;5061791;27;89748;-58
2023/10/14 08:51:54;;;;;;;1.20;1.10;;;;;;;;;;5061696;27;89710;-58
2023/10/14 08:54:23;;;;;;;1.70;1.10;;;;;;;;;;5059388;27;87688;-58
2023/10/14 08:56:52;;;;;;;2.90;1.00;;;;;;;;;;5056408;27;89611;-58
2023/10/14 08:59:21;;;;;;;2.40;1.17;;;;;;;;;;5058131;27;87496;-58
2023/10/14 09:01:54;;;;;;;1.13;0.87;;;;;;;;;;5058250;27;87723;-58
2023/10/14 09:04:28;;;;;;;4.23;1.53;;;;;;;;;;5056103;27;87949;-58
2023/10/14 09:07:00;;;;;;;1.80;1.27;;;;;;;;;;5058408;27;89629;-58
2023/10/14 09:09:29;;;;;;;2.80;1.20;;;;;;;;;;5058614;27;89380;-58
2023/10/14 09:11:58;;;;;;;2.17;1.27;;;;;;;;;;5058732;27;89400;-58
2023/10/14 09:14:26;;;;;;;1.43;1.33;;;;;;;;;;5057975;27;88041;-56
2023/10/14 09:16:55;;;;;;;4.60;1.63;;;;;;;;;;5057982;27;88526;-57
2023/10/14 09:19:23;;;;;;;2.10;1.27;;;;;;;;;;5057599;27;88162;-58
2023/10/14 09:21:57;;;;;;;2.20;1.20;;;;;;;;;;5058288;27;88174;-58
2023/10/14 09:24:28;;;;;;;1.67;1.30;;;;;;;;;;5058302;27;87664;-57
2023/10/14 09:26:58;;;;;;;5.17;2.23;;;;;;;;;;5054418;27;88296;-58
2023/10/14 09:29:26;;;;;;;3.13;1.80;;;;;;;;;;5058635;27;90280;-56
2023/10/14 09:31:59;;;;;;;4.40;1.97;;;;;;;;;;5058443;27;87816;-58
2023/10/14 09:34:30;;;;;;;1.30;1.20;;;;;;;;;;5058619;27;88219;-57
2023/10/14 09:37:03;;;;;;;6.03;2.83;;;;;;;;;;5058624;27;89923;-59
2023/10/14 09:39:33;;;;;;;36.40;20.80;;;;;;;;;;5058059;27;90175;-58
2023/10/14 09:42:01;;;;;;;28.23;14.70;;;;;;;;;;5057352;27;88731;-58
2023/10/14 09:44:30;;;;;;;29.57;15.23;;;;;;;;;;5057752;27;87672;-57
2023/10/14 09:46:59;;;;;;;16.90;10.50;;;;;;;;;;5057381;27;88576;-56
2023/10/14 09:49:28;;;;;;;19.67;9.17;;;;;;;;;;5057607;27;89305;-58
2023/10/14 09:51:56;;;;;;;12.67;7.27;;;;;;;;;;5058094;27;88998;-58
2023/10/14 09:54:26;;;;;;;10.50;4.83;;;;;;;;;;5058221;27;88063;-58
2023/10/14 09:56:55;;;;;;;8.20;4.30;;;;;;;;;;5057295;27;89719;-57
2023/10/14 09:59:23;;;;;;;5.00;2.93;;;;;;;;;;5058235;27;88373;-58
2023/10/14 10:01:53;;;;;;;4.40;2.47;;;;;;;;;;5057917;27;87742;-57
2023/10/14 10:04:23;;;;;;;4.83;2.50;;;;;;;;;;5058049;27;87976;-58
2023/10/14 10:06:54;;;;;;;4.93;2.20;;;;;;;;;;5058510;27;87493;-59
2023/10/14 10:09:34;;;;;;;8.53;1.90;;;;;;;;;;5061379;27;88185;-58
2023/10/14 10:12:04;;;;;;;3.73;1.77;;;;;;;;;;5060903;27;88781;-57
2023/10/14 10:14:35;;;;;;;4.50;1.60;;;;;;;;;;5061613;27;87838;-57
2023/10/14 10:17:08;;;;;;;2.17;1.37;;;;;;;;;;5061546;27;89624;-56
2023/10/14 10:19:52;;;;;;;2.17;1.00;;;;;;;;;;5061482;27;89204;-57
2023/10/14 10:22:20;;;;;;;6.23;1.57;;;;;;;;;;5061305;27;88879;-57
2023/10/14 10:24:50;;;;;;;2.90;1.20;;;;;;;;;;5061692;27;88060;-58
2023/10/14 10:27:19;;;;;;;2.60;1.00;;;;;;;;;;5061501;27;89666;-57
2023/10/14 10:29:49;;;;;;;3.47;1.13;;;;;;;;;;5045294;27;90060;-56
2023/10/14 10:32:21;;;;;;;3.13;0.90;;;;;;;;;;5050647;27;88676;-56
2023/10/14 10:35:08;;;;;;;1.20;0.73;;;;;;;;;;5041303;27;87863;-54
2023/10/14 10:37:37;;;;;;;4.83;1.07;;;;;;;;;;5055054;27;89519;-56
2023/10/14 10:40:10;;;;;;;4.70;1.33;;;;;;;;;;5053365;27;89164;-56
2023/10/14 10:42:41;;;;;;;5.67;1.00;;;;;;;;;;5044640;27;87765;-55
2023/10/14 10:45:10;;;;;;;1.90;0.90;;;;;;;;;;5041117;27;87712;-57
2023/10/14 10:47:45;;;;;;;2.33;0.97;;;;;;;;;;5047559;27;88509;-56
2023/10/14 10:50:17;;;;;;;2.83;0.80;;;;;;;;;;5047395;27;87818;-56
2023/10/14 10:52:54;;;;;;;3.27;1.33;;;;;;;;;;5040858;27;88264;-54
2023/10/14 10:55:25;;;;;;;1.73;0.73;;;;;;;;;;5041697;27;88513;-57
2023/10/14 10:57:57;;;;;;;0.93;0.80;;;;;;;;;;5049684;27;88643;-55
2023/10/14 11:00:25;;;;;;;4.67;3.23;;;;;;;;;;5044623;27;89665;-56
2023/10/14 11:02:54;;;;;;;11.07;8.13;;;;;;;;;;5040243;27;87437;-56
2023/10/14 11:05:25;;;;;;;29.20;13.50;;;;;;;;;;5041266;27;87758;-56
2023/10/14 11:07:53;;;;;;;19.50;10.50;;;;;;;;;;5039190;28;89840;-54
2023/10/14 11:10:27;;;;;;;16.17;9.27;;;;;;;;;;5046042;27;89038;-54
2023/10/14 11:12:56;;;;;;;12.83;7.00;;;;;;;;;;5048410;27;90014;-56
2023/10/14 11:15:26;;;;;;;13.17;5.67;;;;;;;;;;5048924;27;88273;-57
2023/10/14 11:17:56;;;;;;;12.87;5.87;;;;;;;;;;5050958;27;89614;-57
2023/10/14 11:20:26;;;;;;;8.07;4.57;;;;;;;;;;5050080;27;90164;-56
2023/10/14 11:22:55;;;;;;;12.13;5.40;;;;;;;;;;5056955;27;89846;-57
2023/10/14 11:25:23;;;;;;;8.57;3.83;;;;;;;;;;5054079;27;88449;-57
2023/10/14 11:27:57;;;;;;;6.73;3.37;;;;;;;;;;5057625;27;89448;-57
2023/10/14 11:30:26;;;;;;;4.50;3.10;;;;;;;;;;5053869;27;88102;-57
2023/10/14 11:32:58;;;;;;;4.30;2.47;;;;;;;;;;5051752;27;89009;-57
2023/10/14 11:35:29;;;;;;;4.10;2.30;;;;;;;;;;5057024;27;87739;-56
2023/10/14 11:38:00;;;;;;;6.33;2.87;;;;;;;;;;5052841;27;88479;-56
2023/10/14 11:40:33;;;;;;;4.07;2.40;;;;;;;;;;5052728;27;89110;-57
2023/10/14 11:43:04;;;;;;;5.57;2.67;;;;;;;;;;5050294;27;88789;-57
2023/10/14 11:45:32;;;;;;;4.03;1.80;;;;;;;;;;5044470;27;87942;-56
2023/10/14 11:48:01;;;;;;;2.80;1.40;;;;;;;;;;5048506;27;89719;-56
2023/10/14 11:50:30;;;;;;;2.50;1.33;;;;;;;;;;5050095;27;89309;-57
2023/10/14 11:52:59;;;;;;;2.33;1.40;;;;;;;;;;5050901;27;87454;-57
2023/10/14 11:55:28;;;;;;;1.97;1.60;;;;;;;;;;5057540;27;88003;-56
2023/10/14 11:57:58;;;;;;;1.30;1.20;;;;;;;;;;5051498;27;89381;-56
2023/10/14 12:00:27;;;;;;;1.60;1.20;;;;;;;;;;5046831;27;89266;-56
2023/10/14 12:02:56;;;;;;;4.17;1.87;;;;;;;;;;5052677;27;87732;-57
2023/10/14 12:05:24;;;;;;;7.53;1.50;;;;;;;;;;5057427;27;87423;-57
2023/10/14 12:07:55;;;;;;;1.47;1.07;;;;;;;;;;5053996;27;88652;-57
2023/10/14 12:10:26;;;;;;;2.97;1.03;;;;;;;;;;5055655;27;90016;-56
2023/10/14 12:12:54;;;;;;;5.27;1.63;;;;;;;;;;5055946;27;89570;-56
2023/10/14 12:15:23;;;;;;;4.53;1.30;;;;;;;;;;5056901;27;87746;-56
2023/10/14 12:17:52;;;;;;;2.33;1.20;;;;;;;;;;5055275;27;89591;-56
2023/10/14 12:20:22;;;;;;;3.33;1.20;;;;;;;;;;5049991;27;88249;-57
2023/10/14 12:22:50;;;;;;;2.33;1.23;;;;;;;;;;5053436;27;88990;-56
2023/10/14 12:25:19;;;;;;;6.37;1.70;;;;;;;;;;5051355;27;87833;-55
2023/10/14 12:27:48;;;;;;;2.27;1.17;;;;;;;;;;5053495;27;89602;-57
2023/10/14 12:30:35;;;;;;;5.93;1.40;;;;;;;;;;5048632;27;89700;-56
2023/10/14 12:33:05;;;;;;;3.87;1.50;;;;;;;;;;5049594;27;88767;-57
2023/10/14 12:35:39;;;;;;;8.50;1.83;;;;;;;;;;5044775;27;88881;-56
2023/10/14 12:38:11;;;;;;;4.70;1.60;;;;;;;;;;5048119;27;88697;-56
2023/10/14 12:40:43;;;;;;;2.97;1.47;;;;;;;;;;5051581;27;89157;-56
2023/10/14 12:43:12;;;;;;;2.23;1.43;;;;;;;;;;5054584;27;88264;-57
2023/10/14 12:45:40;;;;;;;2.67;1.90;;;;;;;;;;5047676;27;87693;-57
2023/10/14 12:48:10;;;;;;;2.47;1.60;;;;;;;;;;5058360;27;89585;-57
2023/10/14 12:50:41;;;;;;;4.10;2.20;;;;;;;;;;5058282;27;88999;-57
2023/10/14 12:53:10;;;;;;;6.53;2.47;;;;;;;;;;5058767;27;87924;-56
2023/10/14 12:55:42;;;;;;;4.17;2.07;;;;;;;;;;5058615;27;87505;-57
2023/10/14 12:58:10;;;;;;;3.60;2.07;;;;;;;;;;5058590;27;89630;-57
2023/10/14 13:00:39;;;;;;;6.40;2.20;;;;;;;;;;5058503;27;89163;-57
2023/10/14 13:03:10;;;;;;;2.83;2.20;;;;;;;;;;5059070;27;89439;-57
2023/10/14 13:05:46;;;;;;;4.20;2.47;;;;;;;;;;5058614;27;88058;-57
2023/10/14 13:08:18;;;;;;;10.47;3.33;;;;;;;;;;5058418;27;89578;-56
2023/10/14 13:10:47;;;;;;;6.67;2.50;;;;;;;;;;5058956;27;87947;-56
2023/10/14 13:13:17;;;;;;;4.53;2.40;;;;;;;;;;5058633;27;88683;-57
2023/10/14 13:15:47;;;;;;;6.50;3.23;;;;;;;;;;5058614;27;87907;-57
2023/10/14 13:18:16;;;;;;;3.83;2.50;;;;;;;;;;5058875;27;89681;-57
2023/10/14 13:20:47;;;;;;;5.67;2.43;;;;;;;;;;5058510;27;87910;-57
2023/10/14 13:23:19;;;;;;;4.90;2.50;;;;;;;;;;5058862;27;87898;-56
2023/10/14 13:25:47;;;;;;;7.97;3.60;;;;;;;;;;5058216;27;87987;-56
2023/10/14 13:28:16;;;;;;;6.83;3.20;;;;;;;;;;5058575;27;88482;-56
2023/10/14 13:30:46;;;;;;;10.93;3.20;;;;;;;;;;5058051;27;88172;-56
2023/10/14 13:33:16;;;;;;;6.17;2.93;;;;;;;;;;5058199;27;88113;-57
2023/10/14 13:35:45;;;;;;;3.70;2.47;;;;;;;;;;5054309;27;90347;-56
2023/10/14 13:38:15;;;;;;;4.57;3.33;;;;;;;;;;5057930;27;88525;-56
2023/10/14 13:40:44;;;;;;;4.83;3.03;;;;;;;;;;5058103;27;89128;-55
2023/10/14 13:43:14;;;;;;;5.40;3.03;;;;;;;;;;5058315;27;88876;-57
2023/10/14 13:45:43;;;;;;;6.07;2.57;;;;;;;;;;5058687;27;87937;-56
2023/10/14 13:48:13;;;;;;;4.47;2.90;;;;;;;;;;5058069;27;88442;-57
2023/10/14 13:50:42;;;;;;;5.47;3.10;;;;;;;;;;5056736;27;90045;-56
2023/10/14 13:53:17;;;;;;;7.17;2.83;;;;;;;;;;5058131;27;89700;-57
2023/10/14 13:55:53;;;;;;;4.77;2.70;;;;;;;;;;5058162;27;87553;-57
2023/10/14 13:58:23;;;;;;;4.63;3.00;;;;;;;;;;5057676;27;87554;-57
2023/10/14 14:00:52;;;;;;;8.53;2.80;;;;;;;;;;5057793;27;89477;-57
2023/10/14 14:03:21;;;;;;;3.57;2.60;;;;;;;;;;5057440;27;88877;-57
2023/10/14 14:05:51;;;;;;;5.47;3.17;;;;;;;;;;5058266;27;87976;-55
2023/10/14 14:08:24;;;;;;;4.43;2.20;;;;;;;;;;5057785;27;88556;-57
2023/10/14 14:11:00;;;;;;;2.73;2.40;;;;;;;;;;5053717;27;88159;-57
2023/10/14 14:13:30;;;;;;;6.27;3.07;;;;;;;;;;5058022;27;87786;-56
2023/10/14 14:16:00;;;;;;;4.93;3.07;;;;;;;;;;5057222;27;88135;-57
2023/10/14 14:18:29;;;;;;;4.60;3.13;;;;;;;;;;5057070;27;89707;-56
2023/10/14 14:20:58;;;;;;;7.33;2.70;;;;;;;;;;5057641;27;87932;-57
2023/10/14 14:23:27;;;;;;;2.77;2.17;;;;;;;;;;5057641;27;88912;-57
2023/10/14 14:25:57;;;;;;;4.13;2.53;;;;;;;;;;5057715;27;87682;-56
2023/10/14 14:28:25;;;;;;;3.30;2.83;;;;;;;;;;5057618;27;89658;-57
2023/10/14 14:30:54;;;;;;;4.63;2.50;;;;;;;;;;5057217;27;88839;-56
2023/10/14 14:33:23;;;;;;;4.70;2.70;;;;;;;;;;5057550;27;87805;-56
2023/10/14 14:35:51;;;;;;;3.43;2.43;;;;;;;;;;5057973;27;88360;-57
2023/10/14 14:38:21;;;;;;;3.93;2.67;;;;;;;;;;5057679;27;88474;-56
2023/10/14 14:40:50;;;;;;;3.23;2.40;;;;;;;;;;5056662;27;88958;-55
2023/10/14 14:43:20;;;;;;;4.20;2.13;;;;;;;;;;5057182;27;89642;-57
2023/10/14 14:45:49;;;;;;;5.17;2.43;;;;;;;;;;5057537;27;87727;-57
2023/10/14 14:48:17;;;;;;;5.97;2.53;;;;;;;;;;5054321;27;88724;-57
2023/10/14 14:50:47;;;;;;;3.97;2.37;;;;;;;;;;5055337;27;87845;-55
2023/10/14 14:53:19;;;;;;;6.00;2.40;;;;;;;;;;5057834;27;89159;-56
2023/10/14 14:55:47;;;;;;;6.10;2.40;;;;;;;;;;5060173;27;87529;-56
2023/10/14 14:58:15;;;;;;;3.63;2.50;;;;;;;;;;5059911;27;87913;-56
2023/10/14 15:00:45;;;;;;;4.87;2.60;;;;;;;;;;5059771;27;88386;-56
2023/10/14 15:03:16;;;;;;;6.27;2.80;;;;;;;;;;5060129;27;87752;-57
2023/10/14 15:05:45;;;;;;;3.97;2.37;;;;;;;;;;5060006;27;88446;-56